createdAt,value
2023-03-02T00:02:24.449Z,95289.69
2023-03-02T00:04:54.921Z,95287.50
2023-03-02T00:07:32.626Z,95303.34
2023-03-02T00:09:59.772Z,95298.47
2023-03-02T00:12:32.629Z,95278.53
2023-03-02T00:14:59.902Z,95301.28
2023-03-02T00:17:29.703Z,95295.75
2023-03-02T00:20:07.142Z,95291.97
2023-03-02T00:22:34.089Z,95290.16
2023-03-02T00:25:00.985Z,95286.69
2023-03-02T00:27:30.509Z,95278.31
2023-03-02T00:29:57.684Z,95278.59
2023-03-02T00:32:25.159Z,95278.78
2023-03-02T00:34:52.326Z,95275.94
2023-03-02T00:37:19.457Z,95276.38
2023-03-02T00:39:46.428Z,95179.03
2023-03-02T00:42:13.677Z,95251.97
2023-03-02T00:44:40.615Z,95247.06
2023-03-02T00:47:07.600Z,95236.59
2023-03-02T00:49:35.012Z,95254.06
2023-03-02T00:52:03.064Z,95241.47
2023-03-02T00:54:30.020Z,95252.66
2023-03-02T00:56:57.918Z,95247.38
2023-03-02T00:59:28.111Z,95229.69
2023-03-02T01:02:08.053Z,95243.91
2023-03-02T01:04:41.243Z,95213.19
2023-03-02T01:07:11.691Z,95240.63
2023-03-02T01:09:40.250Z,95225.56
2023-03-02T01:12:10.386Z,95234.72
2023-03-02T01:14:39.251Z,95235.34
2023-03-02T01:17:07.133Z,95230.34
2023-03-02T01:19:35.633Z,95220.84
2023-03-02T01:22:02.651Z,95218.81
2023-03-02T01:24:29.943Z,95213.94
2023-03-02T01:26:56.998Z,95233.09
2023-03-02T01:29:24.208Z,95220.25
2023-03-02T01:31:51.256Z,95211.91
2023-03-02T01:34:18.520Z,95226.38
2023-03-02T01:36:46.244Z,95234.94
2023-03-02T01:39:16.850Z,95226.56
2023-03-02T01:41:45.678Z,95211.69
2023-03-02T01:44:40.923Z,95226.69
2023-03-02T01:47:20.643Z,95212.09
2023-03-02T01:50:26.320Z,95206.13
2023-03-02T01:52:57.698Z,95211.69
2023-03-02T01:55:29.131Z,95222.47
2023-03-02T01:57:57.499Z,95207.59
2023-03-02T02:00:33.266Z,95189.91
2023-03-02T02:03:10.938Z,95187.88
2023-03-02T02:05:41.093Z,95203.47
2023-03-02T02:08:08.238Z,95198.44
2023-03-02T02:10:35.693Z,95187.06
2023-03-02T02:13:03.030Z,95194.59
2023-03-02T02:15:30.180Z,95190.94
2023-03-02T02:17:57.121Z,95205.56
2023-03-02T02:20:27.205Z,95211.28
2023-03-02T02:23:12.735Z,95206.56
2023-03-02T02:26:01.975Z,95215.56
2023-03-02T02:28:34.868Z,95215.56
2023-03-02T02:31:13.740Z,95215.56
2023-03-02T02:33:43.817Z,95203.78
2023-03-02T02:36:17.488Z,95215.16
2023-03-02T02:38:48.562Z,95212.09
2023-03-02T02:41:26.315Z,95150.94
2023-03-02T02:43:55.030Z,95197.66
2023-03-02T02:46:22.904Z,95197.50
2023-03-02T02:48:50.125Z,95212.97
2023-03-02T02:51:25.614Z,95202.41
2023-03-02T02:54:01.694Z,95208.47
2023-03-02T02:56:39.071Z,95198.94
2023-03-02T02:59:22.923Z,95202.56
2023-03-02T03:01:51.365Z,95197.06
2023-03-02T03:04:23.392Z,95201.34
2023-03-02T03:07:03.002Z,95196.44
2023-03-02T03:09:31.359Z,95183.66
2023-03-02T03:12:16.096Z,95189.34
2023-03-02T03:14:43.592Z,95198.69
2023-03-02T03:17:12.851Z,95189.72
2023-03-02T03:19:47.741Z,95190.34
2023-03-02T03:22:17.252Z,95199.69
2023-03-02T03:24:46.864Z,95182.22
2023-03-02T03:27:16.536Z,95182.00
2023-03-02T03:29:48.410Z,95177.31
2023-03-02T03:32:18.298Z,95195.81
2023-03-02T03:34:46.357Z,95200.28
2023-03-02T03:37:22.469Z,95185.22
2023-03-02T03:39:49.991Z,95180.75
2023-03-02T03:42:18.209Z,95202.94
2023-03-02T03:44:46.163Z,95171.16
2023-03-02T03:47:13.574Z,95194.56
2023-03-02T03:49:40.555Z,95192.31
2023-03-02T03:52:08.257Z,95189.50
2023-03-02T03:54:35.691Z,95191.50
2023-03-02T03:57:02.889Z,95199.66
2023-03-02T03:59:29.923Z,95190.09
2023-03-02T04:02:01.926Z,95197.00
2023-03-02T04:04:35.694Z,95179.72
2023-03-02T04:07:10.171Z,95190.13
2023-03-02T04:09:39.324Z,95197.44
2023-03-02T04:12:09.866Z,95198.28
2023-03-02T04:14:38.845Z,95189.94
2023-03-02T04:17:07.168Z,95186.72
2023-03-02T04:19:37.547Z,95172.50
2023-03-02T04:22:05.087Z,95162.50
2023-03-02T04:24:34.021Z,95181.22
2023-03-02T04:27:03.410Z,95185.44
2023-03-02T04:29:32.432Z,95180.19
2023-03-02T04:32:01.455Z,95194.88
2023-03-02T04:34:34.607Z,95189.16
2023-03-02T04:37:03.064Z,95145.09
2023-03-02T04:39:34.235Z,95195.47
2023-03-02T04:42:02.475Z,95199.94
2023-03-02T04:44:29.581Z,95152.59
2023-03-02T04:46:56.504Z,95201.19
2023-03-02T04:49:23.722Z,95205.19
2023-03-02T04:51:51.881Z,95163.75
2023-03-02T04:54:25.487Z,95197.47
2023-03-02T04:56:54.358Z,95208.44
2023-03-02T04:59:25.912Z,95202.94
2023-03-02T05:01:55.248Z,95211.50
2023-03-02T05:04:22.655Z,95208.84
2023-03-02T05:06:50.027Z,95205.19
2023-03-02T05:09:17.100Z,95206.00
2023-03-02T05:11:44.096Z,95202.75
2023-03-02T05:14:13.050Z,95213.13
2023-03-02T05:16:41.582Z,95179.34
2023-03-02T05:19:11.631Z,95214.94
2023-03-02T05:21:39.405Z,95221.88
2023-03-02T05:24:06.717Z,95205.38
2023-03-02T05:26:34.285Z,95217.94
2023-03-02T05:29:01.435Z,95205.91
2023-03-02T05:31:35.116Z,95223.38
2023-03-02T05:34:04.788Z,95229.25
2023-03-02T05:36:32.515Z,95220.50
2023-03-02T05:38:59.839Z,95218.00
2023-03-02T05:41:27.182Z,95223.44
2023-03-02T05:43:54.185Z,95219.34
2023-03-02T05:46:22.138Z,95216.50
2023-03-02T05:48:49.409Z,95225.41
2023-03-02T05:51:16.487Z,95223.41
2023-03-02T05:53:43.548Z,95213.19
2023-03-02T05:56:10.619Z,95234.09
2023-03-02T05:58:37.572Z,95216.97
2023-03-02T06:01:09.963Z,95218.31
2023-03-02T06:03:37.034Z,95183.19
2023-03-02T06:06:04.179Z,95218.66
2023-03-02T06:08:31.733Z,95207.69
2023-03-02T06:10:59.109Z,95229.44
2023-03-02T06:13:26.208Z,95240.00
2023-03-02T06:15:53.163Z,95214.81
2023-03-02T06:18:20.002Z,95233.50
2023-03-02T06:20:47.109Z,95234.91
2023-03-02T06:23:14.116Z,95239.41
2023-03-02T06:25:43.770Z,95244.50
2023-03-02T06:28:10.783Z,95245.47
2023-03-02T06:30:37.656Z,95249.53
2023-03-02T06:33:04.726Z,95230.41
2023-03-02T06:35:32.094Z,95250.75
2023-03-02T06:37:59.038Z,95250.16
2023-03-02T06:40:26.061Z,95247.25
2023-03-02T06:42:53.071Z,95231.81
2023-03-02T06:45:20.034Z,95237.16
2023-03-02T06:47:46.936Z,95234.72
2023-03-02T06:50:13.971Z,95231.03
2023-03-02T06:52:40.962Z,95255.41
2023-03-02T06:55:08.604Z,95248.91
2023-03-02T06:57:35.488Z,95244.41
2023-03-02T07:00:09.751Z,95248.09
2023-03-02T07:02:37.502Z,95243.47
2023-03-02T07:05:05.457Z,95236.75
2023-03-02T07:07:32.449Z,95224.66
2023-03-02T07:09:59.305Z,95233.19
2023-03-02T07:12:26.270Z,95217.72
2023-03-02T07:14:53.192Z,95245.69
2023-03-02T07:17:20.145Z,95191.75
2023-03-02T07:19:47.238Z,95249.59
2023-03-02T07:22:14.446Z,95237.59
2023-03-02T07:24:42.590Z,95228.56
2023-03-02T07:27:10.476Z,95247.41
2023-03-02T07:29:37.433Z,95231.47
2023-03-02T07:32:06.945Z,95229.63
2023-03-02T07:34:33.863Z,95252.66
2023-03-02T07:37:01.096Z,95243.50
2023-03-02T07:39:28.209Z,95242.47
2023-03-02T07:41:59.402Z,95250.09
2023-03-02T07:44:28.652Z,95257.16
2023-03-02T07:46:55.715Z,95253.25
2023-03-02T07:49:22.829Z,95252.75
2023-03-02T07:51:50.037Z,95257.16
2023-03-02T07:54:17.470Z,95256.06
2023-03-02T07:56:44.341Z,95237.03
2023-03-02T07:59:12.545Z,95234.72
2023-03-02T08:01:39.564Z,95239.59
2023-03-02T08:04:06.692Z,95236.03
2023-03-02T08:06:33.867Z,95255.53
2023-03-02T08:09:03.614Z,95247.31
2023-03-02T08:11:30.673Z,95252.66
2023-03-02T08:14:01.869Z,95243.97
2023-03-02T08:16:29.399Z,95247.03
2023-03-02T08:18:59.514Z,95234.53
2023-03-02T08:21:27.540Z,95224.72
2023-03-02T08:23:54.720Z,95250.03
2023-03-02T08:26:21.824Z,95233.44
2023-03-02T08:28:49.276Z,95234.16
2023-03-02T08:31:16.370Z,95218.19
2023-03-02T08:33:43.666Z,95227.41
2023-03-02T08:36:16.986Z,95237.53
2023-03-02T08:38:45.358Z,95242.97
2023-03-02T08:41:18.693Z,95232.09
2023-03-02T08:43:45.809Z,95242.63
2023-03-02T08:46:14.505Z,95241.16
2023-03-02T08:48:41.564Z,95231.91
2023-03-02T08:51:13.303Z,95239.66
2023-03-02T08:53:42.912Z,95226.81
2023-03-02T08:56:24.400Z,95235.03
2023-03-02T08:58:53.153Z,95223.09
2023-03-02T09:01:25.682Z,95229.81
2023-03-02T09:03:52.820Z,95226.69
2023-03-02T09:06:19.865Z,95212.69
2023-03-02T09:08:48.187Z,95220.31
2023-03-02T09:11:15.861Z,95216.38
2023-03-02T09:13:43.246Z,95218.66
2023-03-02T09:16:10.842Z,95208.34
2023-03-02T09:18:37.972Z,95192.00
2023-03-02T09:21:05.268Z,95215.75
2023-03-02T09:23:33.296Z,95191.22
2023-03-02T09:26:00.289Z,95215.41
2023-03-02T09:28:27.476Z,95219.06
2023-03-02T09:30:58.662Z,95218.03
2023-03-02T09:33:26.082Z,95221.41
2023-03-02T09:35:53.039Z,95218.00
2023-03-02T09:38:20.209Z,95203.25
2023-03-02T09:40:52.317Z,95220.06
2023-03-02T09:43:22.266Z,95210.94
2023-03-02T09:45:57.745Z,95215.56
2023-03-02T09:48:36.806Z,95200.63
2023-03-02T09:51:06.546Z,95212.94
2023-03-02T09:53:36.434Z,95212.00
2023-03-02T09:56:03.756Z,95219.53
2023-03-02T09:58:42.186Z,95204.00
2023-03-02T10:01:18.232Z,95216.84
2023-03-02T10:03:52.634Z,95217.56
2023-03-02T10:06:19.674Z,95198.75
2023-03-02T10:08:46.843Z,95192.03
2023-03-02T10:11:38.925Z,95213.38
2023-03-02T10:14:26.184Z,95204.34
2023-03-02T10:16:59.897Z,95205.00
2023-03-02T10:19:41.685Z,95203.72
2023-03-02T10:22:33.235Z,95216.69
2023-03-02T10:25:22.941Z,95194.59
2023-03-02T10:28:19.226Z,95171.44
2023-03-02T10:30:51.133Z,95209.38
2023-03-02T10:33:21.454Z,95186.13
2023-03-02T10:35:50.910Z,95217.88
2023-03-02T10:38:25.581Z,95075.75
2023-03-02T10:41:00.675Z,95204.69
2023-03-02T10:43:32.336Z,95199.38
2023-03-02T10:46:10.658Z,95201.31
2023-03-02T10:49:23.272Z,95196.34
2023-03-02T10:52:01.034Z,95203.06
2023-03-02T10:54:30.609Z,95198.53
2023-03-02T10:56:59.796Z,95199.91
2023-03-02T10:59:29.404Z,95188.06
2023-03-02T11:02:12.293Z,95185.84
2023-03-02T11:04:39.456Z,95162.91
2023-03-02T11:07:19.159Z,95186.53
2023-03-02T11:10:07.015Z,95187.63
2023-03-02T11:12:37.112Z,95167.91
2023-03-02T11:15:32.043Z,95179.16
2023-03-02T11:18:08.675Z,95126.06
2023-03-02T11:20:41.036Z,95169.09
2023-03-02T11:23:16.828Z,95158.19
2023-03-02T11:25:59.850Z,95140.38
2023-03-02T11:28:40.917Z,95174.78
2023-03-02T11:31:17.582Z,95162.16
2023-03-02T11:34:07.956Z,95142.28
2023-03-02T11:36:52.809Z,95161.53
2023-03-02T11:39:26.505Z,95149.25
2023-03-02T11:41:54.107Z,95133.06
2023-03-02T11:44:22.083Z,95149.56
2023-03-02T11:46:59.598Z,95159.28
2023-03-02T11:49:38.055Z,95146.00
2023-03-02T11:52:06.880Z,95156.53
2023-03-02T11:54:52.873Z,95138.16
2023-03-02T11:57:27.803Z,95154.56
2023-03-02T11:59:56.598Z,95133.81
2023-03-02T12:02:23.659Z,95137.66
2023-03-02T12:05:02.346Z,95148.03
2023-03-02T12:07:31.225Z,95142.66
2023-03-02T12:10:09.175Z,95165.97
2023-03-02T12:12:46.737Z,95123.47
2023-03-02T12:15:36.488Z,95165.41
2023-03-02T12:18:15.749Z,95148.88
2023-03-02T12:20:43.138Z,95142.59
2023-03-02T12:23:22.649Z,95148.59
2023-03-02T12:25:51.674Z,95153.56
2023-03-02T12:28:32.029Z,95149.25
2023-03-02T12:31:11.221Z,95143.22
2023-03-02T12:33:49.145Z,95089.09
2023-03-02T12:36:29.796Z,95137.28
2023-03-02T12:39:33.849Z,95143.91
2023-03-02T12:42:38.239Z,95147.81
2023-03-02T12:45:20.536Z,95145.38
2023-03-02T12:47:51.862Z,95146.34
2023-03-02T12:50:27.353Z,95149.13
2023-03-02T12:53:00.290Z,95157.75
2023-03-02T12:55:27.908Z,95143.59
2023-03-02T12:58:02.413Z,95147.91
2023-03-02T13:00:32.649Z,95130.25
2023-03-02T13:03:02.251Z,95132.50
2023-03-02T13:05:34.908Z,95126.16
2023-03-02T13:08:05.923Z,95118.91
2023-03-02T13:10:42.699Z,95125.19
2023-03-02T13:13:17.728Z,95120.69
2023-03-02T13:15:58.233Z,95116.41
2023-03-02T13:18:31.857Z,95117.78
2023-03-02T13:21:04.103Z,95097.34
2023-03-02T13:23:32.973Z,95115.53
2023-03-02T13:26:05.224Z,95103.63
2023-03-02T13:28:34.034Z,95110.75
2023-03-02T13:31:14.711Z,95111.78
2023-03-02T13:33:46.112Z,95093.03
2023-03-02T13:36:42.514Z,95098.50
2023-03-02T13:39:20.027Z,95095.63
2023-03-02T13:41:56.691Z,95031.56
2023-03-02T13:44:29.831Z,95084.47
2023-03-02T13:46:57.378Z,95086.00
2023-03-02T13:49:30.049Z,95082.75
2023-03-02T13:52:03.234Z,95032.84
2023-03-02T13:54:33.775Z,95077.34
2023-03-02T13:57:03.482Z,95092.19
2023-03-02T13:59:35.184Z,95077.63
2023-03-02T14:02:02.186Z,95082.91
2023-03-02T14:04:29.117Z,95071.44
2023-03-02T14:06:56.442Z,95091.50
2023-03-02T14:09:23.495Z,95093.44
2023-03-02T14:11:53.255Z,95071.69
2023-03-02T14:14:24.655Z,95071.88
2023-03-02T14:16:52.262Z,95083.06
2023-03-02T14:19:20.196Z,95064.81
2023-03-02T14:21:48.066Z,95070.47
2023-03-02T14:24:15.153Z,95062.66
2023-03-02T14:26:44.758Z,95065.97
2023-03-02T14:29:26.691Z,95066.22
2023-03-02T14:31:55.423Z,95065.34
2023-03-02T14:34:23.395Z,95063.34
2023-03-02T14:36:54.086Z,95044.22
2023-03-02T14:39:41.660Z,95083.25
2023-03-02T14:42:14.079Z,95066.09
2023-03-02T14:44:42.461Z,95059.31
2023-03-02T14:47:10.427Z,95055.53
2023-03-02T14:49:38.087Z,95061.56
2023-03-02T14:52:37.602Z,95063.53
2023-03-02T14:55:33.766Z,95073.75
2023-03-02T14:58:10.758Z,95079.91
2023-03-02T15:00:37.823Z,95074.25
2023-03-02T15:03:04.709Z,95060.47
2023-03-02T15:05:32.085Z,95068.34
2023-03-02T15:07:59.039Z,95065.47
2023-03-02T15:10:26.162Z,95082.91
2023-03-02T15:12:53.121Z,95054.81
2023-03-02T15:15:20.323Z,95063.38
2023-03-02T15:17:47.222Z,95071.47
2023-03-02T15:20:16.147Z,95061.75
2023-03-02T15:22:43.949Z,95060.72
2023-03-02T15:25:11.182Z,95086.16
2023-03-02T15:27:39.445Z,95076.78
2023-03-02T15:30:07.073Z,95070.34
2023-03-02T15:32:36.521Z,95059.69
2023-03-02T15:35:04.171Z,95087.00
2023-03-02T15:37:31.302Z,95090.34
2023-03-02T15:39:58.345Z,95084.88
2023-03-02T15:42:25.496Z,95070.75
2023-03-02T15:44:52.509Z,95077.66
2023-03-02T15:47:19.504Z,95087.47
2023-03-02T15:49:46.370Z,95091.75
2023-03-02T15:52:13.487Z,95092.56
2023-03-02T15:54:40.743Z,95090.19
2023-03-02T15:57:07.844Z,95093.66
2023-03-02T15:59:34.920Z,95107.44
2023-03-02T16:02:02.513Z,95113.63
2023-03-02T16:04:31.151Z,95086.88
2023-03-02T16:06:58.325Z,95111.31
2023-03-02T16:09:26.903Z,95053.75
2023-03-02T16:11:53.805Z,95113.47
2023-03-02T16:14:20.657Z,95103.09
2023-03-02T16:16:48.364Z,95122.72
2023-03-02T16:19:19.095Z,95114.22
2023-03-02T16:21:47.697Z,95130.69
2023-03-02T16:24:16.367Z,95111.56
2023-03-02T16:26:44.802Z,95103.31
2023-03-02T16:29:13.364Z,95088.06
2023-03-02T16:31:40.959Z,95124.72
2023-03-02T16:34:09.774Z,95122.50
2023-03-02T16:36:39.486Z,95136.81
2023-03-02T16:39:08.575Z,95126.38
2023-03-02T16:41:40.429Z,95105.94
2023-03-02T16:44:07.882Z,95135.19
2023-03-02T16:46:37.296Z,95141.84
2023-03-02T16:49:05.000Z,95125.84
2023-03-02T16:51:33.739Z,95138.91
2023-03-02T16:54:00.896Z,95133.88
2023-03-02T16:56:27.818Z,95124.06
2023-03-02T16:58:55.657Z,95065.44
2023-03-02T17:01:23.216Z,95130.75
2023-03-02T17:03:51.278Z,95128.41
2023-03-02T17:06:21.078Z,95143.88
2023-03-02T17:08:48.648Z,95143.13
2023-03-02T17:11:15.611Z,95115.38
2023-03-02T17:13:42.644Z,95136.47
2023-03-02T17:16:09.791Z,95116.63
2023-03-02T17:18:36.756Z,95145.91
2023-03-02T17:21:04.610Z,95145.28
2023-03-02T17:23:31.727Z,95149.44
2023-03-02T17:25:58.658Z,95121.88
2023-03-02T17:28:26.104Z,95151.53
2023-03-02T17:30:53.242Z,95153.56
2023-03-02T17:33:20.436Z,95143.84
2023-03-02T17:35:47.400Z,95154.03
2023-03-02T17:38:15.769Z,95153.25
2023-03-02T17:40:42.932Z,95139.63
2023-03-02T17:43:11.542Z,95144.97
2023-03-02T17:45:38.940Z,95163.47
2023-03-02T17:48:06.585Z,95146.28
2023-03-02T17:50:33.584Z,95152.59
2023-03-02T17:53:00.949Z,95157.91
2023-03-02T17:55:27.882Z,95146.91
2023-03-02T17:57:55.361Z,95133.97
2023-03-02T18:00:24.224Z,95132.22
2023-03-02T18:02:52.278Z,95156.41
2023-03-02T18:05:19.488Z,95149.88
2023-03-02T18:07:46.356Z,95157.22
2023-03-02T18:10:13.826Z,95132.03
2023-03-02T18:12:40.998Z,95116.16
2023-03-02T18:15:08.610Z,95147.91
2023-03-02T18:17:35.497Z,95117.22
2023-03-02T18:20:03.120Z,95149.53
2023-03-02T18:22:30.822Z,95103.81
2023-03-02T18:24:57.970Z,95123.69
2023-03-02T18:27:24.923Z,95125.94
2023-03-02T18:29:51.928Z,95144.25
2023-03-02T18:32:18.971Z,95141.00
2023-03-02T18:34:46.007Z,95136.53
2023-03-02T18:37:12.952Z,95081.16
2023-03-02T18:39:39.854Z,95142.88
2023-03-02T18:42:07.600Z,95141.03
2023-03-02T18:44:35.361Z,95144.09
2023-03-02T18:47:02.712Z,95145.09
2023-03-02T18:49:30.147Z,95137.22
2023-03-02T18:51:57.330Z,95130.06
2023-03-02T18:54:24.861Z,95137.78
2023-03-02T18:56:51.775Z,95133.69
2023-03-02T18:59:19.068Z,95134.72
2023-03-02T19:01:47.116Z,95137.78
2023-03-02T19:04:15.232Z,95129.06
2023-03-02T19:06:43.653Z,95136.56
2023-03-02T19:09:11.249Z,95134.31
2023-03-02T19:11:38.163Z,95146.31
2023-03-02T19:14:05.182Z,95123.38
2023-03-02T19:16:32.792Z,95147.00
2023-03-02T19:18:59.823Z,95081.78
2023-03-02T19:21:26.716Z,95132.56
2023-03-02T19:23:53.738Z,95129.34
2023-03-02T19:26:20.685Z,95134.63
2023-03-02T19:28:47.583Z,95132.81
2023-03-02T19:31:15.123Z,95128.56
2023-03-02T19:33:42.677Z,95121.06
2023-03-02T19:36:10.175Z,95131.81
2023-03-02T19:38:44.622Z,95150.13
2023-03-02T19:41:17.060Z,95153.38
2023-03-02T19:43:46.157Z,95145.28
2023-03-02T19:46:14.810Z,95156.63
2023-03-02T19:48:42.273Z,95154.00
2023-03-02T19:51:09.473Z,95142.84
2023-03-02T19:53:38.276Z,95145.47
2023-03-02T19:56:08.177Z,95142.38
2023-03-02T19:58:36.444Z,95137.94
2023-03-02T20:01:04.272Z,95140.59
2023-03-02T20:03:31.538Z,95148.34
2023-03-02T20:05:59.608Z,95150.78
2023-03-02T20:08:26.805Z,95147.94
2023-03-02T20:10:54.053Z,95129.44
2023-03-02T20:13:21.338Z,95155.88
2023-03-02T20:15:48.380Z,95143.88
2023-03-02T20:18:19.226Z,95147.72
2023-03-02T20:20:47.159Z,95145.47
2023-03-02T20:23:15.187Z,95130.06
2023-03-02T20:25:42.295Z,95152.81
2023-03-02T20:28:12.111Z,95154.44
2023-03-02T20:30:46.665Z,95145.69
2023-03-02T20:33:14.940Z,95123.34
2023-03-02T20:35:44.492Z,95134.69
2023-03-02T20:38:21.313Z,95121.66
2023-03-02T20:40:48.465Z,95137.69
2023-03-02T20:43:17.095Z,95129.75
2023-03-02T20:45:44.170Z,95112.91
2023-03-02T20:48:11.470Z,95126.06
2023-03-02T20:50:38.598Z,95135.59
2023-03-02T20:53:06.635Z,95142.94
2023-03-02T20:55:34.342Z,95136.97
2023-03-02T20:58:02.096Z,95129.63
2023-03-02T21:00:30.432Z,95127.44
2023-03-02T21:02:58.811Z,95128.25
2023-03-02T21:05:26.963Z,95126.16
2023-03-02T21:07:54.985Z,95118.44
2023-03-02T21:10:29.592Z,95120.03
2023-03-02T21:12:56.900Z,95096.47
2023-03-02T21:15:27.200Z,95109.06
2023-03-02T21:17:55.247Z,95123.28
2023-03-02T21:20:24.436Z,95116.19
2023-03-02T21:22:51.492Z,95096.88
2023-03-02T21:25:18.454Z,95106.81
2023-03-02T21:27:45.915Z,95063.22
2023-03-02T21:30:17.910Z,95126.78
2023-03-02T21:32:45.688Z,95109.53
2023-03-02T21:35:15.324Z,95122.72
2023-03-02T21:37:42.889Z,95108.09
2023-03-02T21:40:14.149Z,95110.72
2023-03-02T21:42:42.171Z,95109.09
2023-03-02T21:45:09.703Z,95071.38
2023-03-02T21:47:36.786Z,95090.59
2023-03-02T21:50:05.412Z,95100.34
2023-03-02T21:52:32.663Z,95099.94
2023-03-02T21:54:59.497Z,95082.91
2023-03-02T21:57:26.541Z,95104.22
2023-03-02T21:59:54.806Z,95099.34
2023-03-02T22:02:21.856Z,95089.19
2023-03-02T22:04:48.795Z,95095.88
2023-03-02T22:07:16.097Z,95091.81
2023-03-02T22:09:42.973Z,95094.25
2023-03-02T22:12:13.710Z,95083.25
2023-03-02T22:14:41.008Z,95070.22
2023-03-02T22:17:21.034Z,95080.41
2023-03-02T22:19:49.788Z,95072.44
2023-03-02T22:22:25.968Z,95085.63
2023-03-02T22:24:54.435Z,95083.47
2023-03-02T22:27:27.348Z,95074.69
2023-03-02T22:29:57.852Z,95077.16
2023-03-02T22:32:30.700Z,95066.97
2023-03-02T22:35:00.260Z,95071.84
2023-03-02T22:37:30.475Z,95075.09
2023-03-02T22:40:02.012Z,95074.06
2023-03-02T22:42:30.862Z,95057.41
2023-03-02T22:45:12.993Z,95072.25
2023-03-02T22:47:44.106Z,95060.72
2023-03-02T22:50:28.924Z,95041.81
2023-03-02T22:52:58.533Z,95058.09
2023-03-02T22:55:39.414Z,95064.16
2023-03-02T22:58:37.410Z,95067.38
2023-03-02T23:01:23.448Z,95049.91
2023-03-02T23:03:53.170Z,95055.19
2023-03-02T23:06:29.436Z,95046.44
2023-03-02T23:08:59.445Z,95059.44
2023-03-02T23:11:27.315Z,95054.41
2023-03-02T23:13:55.184Z,95044.22
2023-03-02T23:16:26.390Z,95046.66
2023-03-02T23:18:56.834Z,95038.31
2023-03-02T23:21:47.412Z,95048.50
2023-03-02T23:24:14.985Z,95028.81
2023-03-02T23:26:41.801Z,95045.44
2023-03-02T23:29:08.861Z,95033.84
2023-03-02T23:31:35.782Z,95038.50
2023-03-02T23:34:02.802Z,95035.63
2023-03-02T23:36:30.922Z,95022.66
2023-03-02T23:38:58.485Z,95029.97
2023-03-02T23:41:26.816Z,95023.53
2023-03-02T23:43:53.968Z,95001.81
2023-03-02T23:46:20.906Z,95021.91
2023-03-02T23:48:48.540Z,94999.78
2023-03-02T23:51:16.015Z,94998.78
2023-03-02T23:53:42.996Z,95026.88
2023-03-02T23:56:10.104Z,94955.44
2023-03-02T23:58:37.425Z,95015.69
